Time;durP1;ratioP1;P1;durP2;ratioP2;P2;SDS_P1;SDS_P2;PMS_P1;PMS_P2;Temp;Humidity;BMP_temperature;BMP_pressure;BME280_temperature;BME280_humidity;BME280_pressure;Samples;Min_cycle;Max_cycle;Signal;HPM_P1;HPM_P2
2024/01/07 00:01:45;;;;;;;29.50;28.42;;;;;;;;;;4134146;28;20637;-61
2024/01/07 00:03:47;;;;;;;30.35;29.15;;;;;;;;;;4134217;28;20051;-60
2024/01/07 00:05:49;;;;;;;27.98;27.33;;;;;;;;;;4134364;28;20042;-61
2024/01/07 00:07:51;;;;;;;27.37;26.67;;;;;;;;;;4134328;28;20418;-60
2024/01/07 00:09:53;;;;;;;;;;;;;;;;;;4150154;28;20042;-61
2024/01/07 00:11:54;;;;;;;25.35;24.80;;;;;;;;;;4150339;28;19921;-60
2024/01/07 00:13:56;;;;;;;28.33;27.13;;;;;;;;;;4150640;28;20038;-61
2024/01/07 00:15:58;;;;;;;26.85;25.92;;;;;;;;;;4149158;28;20054;-61
2024/01/07 00:17:59;;;;;;;26.30;25.63;;;;;;;;;;4150394;28;20077;-61
2024/01/07 00:20:01;;;;;;;26.08;25.58;;;;;;;;;;4150429;28;20295;-61
2024/01/07 00:22:03;;;;;;;21.90;21.50;;;;;;;;;;4150351;28;20073;-61
2024/01/07 00:24:05;;;;;;;25.23;24.80;;;;;;;;;;4150424;28;20292;-61
2024/01/07 00:26:07;;;;;;;25.70;25.10;;;;;;;;;;4143604;28;20341;-61
2024/01/07 00:28:09;;;;;;;25.80;25.33;;;;;;;;;;4134038;28;20042;-61
2024/01/07 00:30:11;;;;;;;25.53;25.10;;;;;;;;;;4134277;28;20402;-61
2024/01/07 00:32:13;;;;;;;25.25;24.60;;;;;;;;;;4132796;28;20265;-61
2024/01/07 00:34:14;;;;;;;24.02;23.63;;;;;;;;;;4134044;28;20137;-61
2024/01/07 00:36:16;;;;;;;23.67;23.17;;;;;;;;;;4134231;28;20488;-58
2024/01/07 00:38:18;;;;;;;27.10;26.50;;;;;;;;;;4133847;28;20085;-58
2024/01/07 00:40:19;;;;;;;27.05;26.55;;;;;;;;;;4133711;28;20081;-59
2024/01/07 00:42:21;;;;;;;27.53;26.83;;;;;;;;;;4133768;28;20045;-58
2024/01/07 00:44:23;;;;;;;30.00;28.70;;;;;;;;;;4133896;28;20316;-59
2024/01/07 00:46:24;;;;;;;28.58;27.58;;;;;;;;;;4116351;28;20518;-59
2024/01/07 00:48:26;;;;;;;29.30;28.40;;;;;;;;;;4129876;28;20096;-58
2024/01/07 00:50:28;;;;;;;23.17;22.77;;;;;;;;;;4133534;28;20054;-58
2024/01/07 00:52:29;;;;;;;30.05;29.05;;;;;;;;;;4139950;28;20371;-58
2024/01/07 00:54:31;;;;;;;28.63;27.63;;;;;;;;;;4149768;28;20520;-59
2024/01/07 00:56:33;;;;;;;29.13;28.00;;;;;;;;;;4149988;28;20060;-58
2024/01/07 00:58:35;;;;;;;31.80;30.48;;;;;;;;;;4149761;28;20077;-58
2024/01/07 01:00:37;;;;;;;29.05;28.02;;;;;;;;;;4149417;28;20069;-58
2024/01/07 01:02:39;;;;;;;29.92;28.98;;;;;;;;;;4149291;28;20069;-58
2024/01/07 01:04:40;;;;;;;28.50;27.50;;;;;;;;;;4149884;28;20045;-59
2024/01/07 01:06:42;;;;;;;30.00;28.73;;;;;;;;;;4149645;28;20113;-59
2024/01/07 01:08:44;;;;;;;29.57;28.50;;;;;;;;;;4148463;28;20394;-59
2024/01/07 01:10:45;;;;;;;30.57;29.33;;;;;;;;;;4149426;28;20347;-58
2024/01/07 01:12:47;;;;;;;30.15;28.98;;;;;;;;;;4149773;28;20042;-58
2024/01/07 01:14:49;;;;;;;27.75;26.95;;;;;;;;;;4149507;28;20050;-58
2024/01/07 01:16:50;;;;;;;29.57;28.53;;;;;;;;;;4149506;28;20056;-58
2024/01/07 01:18:52;;;;;;;32.25;30.75;;;;;;;;;;4139747;28;20105;-58
2024/01/07 01:20:55;;;;;;;29.00;27.88;;;;;;;;;;4124851;28;20038;-59
2024/01/07 01:22:57;;;;;;;28.30;26.98;;;;;;;;;;4122557;28;20046;-58
2024/01/07 01:24:58;;;;;;;32.67;31.40;;;;;;;;;;4117361;28;20495;-59
2024/01/07 01:27:00;;;;;;;31.50;30.15;;;;;;;;;;4117421;28;20038;-61
2024/01/07 01:29:02;;;;;;;28.33;27.38;;;;;;;;;;4117128;28;20043;-60
2024/01/07 01:31:04;;;;;;;29.83;28.92;;;;;;;;;;4116916;28;20043;-61
2024/01/07 01:33:06;;;;;;;;;;;;;;;;;;4117598;28;20043;-61
2024/01/07 01:35:08;;;;;;;28.08;27.08;;;;;;;;;;4116897;28;19957;-61
2024/01/07 01:37:10;;;;;;;27.35;26.65;;;;;;;;;;4117603;28;20039;-60
2024/01/07 01:39:11;;;;;;;27.52;26.80;;;;;;;;;;4132924;28;20133;-61
2024/01/07 01:41:13;;;;;;;30.17;29.02;;;;;;;;;;4132724;28;20581;-61
2024/01/07 01:43:21;;;;;;;29.75;28.17;;;;;;;;;;4132924;28;20145;-61
2024/01/07 01:45:23;;;;;;;30.63;29.50;;;;;;;;;;4131920;28;20039;-61
2024/01/07 01:47:25;;;;;;;28.33;27.03;;;;;;;;;;4132935;28;20105;-61
2024/01/07 01:49:27;;;;;;;33.20;31.73;;;;;;;;;;4132825;28;20053;-61
2024/01/07 01:51:29;;;;;;;;;;;;;;;;;;4133307;28;20045;-61
2024/01/07 01:53:30;;;;;;;32.08;30.23;;;;;;;;;;4132837;28;19921;-61
2024/01/07 01:55:33;;;;;;;34.30;32.47;;;;;;;;;;4132847;28;20047;-60
2024/01/07 01:57:35;;;;;;;;;;;;;;;;;;4131887;28;20725;-61
2024/01/07 01:59:36;;;;;;;29.80;28.80;;;;;;;;;;4139242;28;19921;-61
2024/01/07 02:01:39;;;;;;;27.85;26.92;;;;;;;;;;4148611;28;20066;-61
2024/01/07 02:03:40;;;;;;;29.65;28.65;;;;;;;;;;4171094;22;20053;-59
2024/01/07 02:05:42;;;;;;;28.88;27.85;;;;;;;;;;4148903;28;20034;-58
2024/01/07 02:07:44;;;;;;;27.15;26.45;;;;;;;;;;4145203;28;20456;-59
2024/01/07 02:09:46;;;;;;;27.30;26.70;;;;;;;;;;4147589;28;20034;-59
2024/01/07 02:12:00;;;;;;;27.08;26.30;;;;;;;;;;4148699;28;20640;-59
2024/01/07 02:14:03;;;;;;;24.58;24.10;;;;;;;;;;4148739;28;20053;-58
2024/01/07 02:16:05;;;;;;;26.73;25.93;;;;;;;;;;4148702;28;20122;-59
2024/01/07 02:18:07;;;;;;;24.05;23.65;;;;;;;;;;4148714;28;20046;-59
2024/01/07 02:20:09;;;;;;;27.45;26.60;;;;;;;;;;4148649;28;20046;-59
2024/01/07 02:22:11;;;;;;;28.30;27.20;;;;;;;;;;4147105;28;20133;-59
2024/01/07 02:24:15;;;;;;;24.17;23.70;;;;;;;;;;4147111;28;20084;-59
2024/01/07 02:26:17;;;;;;;25.38;24.80;;;;;;;;;;4148635;28;20046;-59
2024/01/07 02:28:19;;;;;;;28.23;27.63;;;;;;;;;;4148685;28;20160;-59
2024/01/07 02:30:20;;;;;;;27.67;26.73;;;;;;;;;;4148270;28;20058;-59
2024/01/07 02:32:22;;;;;;;28.90;28.00;;;;;;;;;;4148644;28;20038;-59
2024/01/07 02:34:24;;;;;;;29.07;28.00;;;;;;;;;;4148531;28;20303;-59
2024/01/07 02:36:26;;;;;;;39.85;36.83;;;;;;;;;;4148564;28;20367;-59
2024/01/07 02:38:27;;;;;;;32.38;30.73;;;;;;;;;;4148553;28;20092;-59
2024/01/07 02:40:29;;;;;;;27.65;26.55;;;;;;;;;;4157327;28;20041;-59
2024/01/07 02:42:31;;;;;;;28.05;26.95;;;;;;;;;;4164799;28;20041;-59
2024/01/07 02:44:33;;;;;;;30.88;29.77;;;;;;;;;;4157244;28;20102;-60
2024/01/07 02:46:34;;;;;;;31.63;30.43;;;;;;;;;;4148466;28;20132;-59
2024/01/07 02:48:36;;;;;;;29.88;28.73;;;;;;;;;;4148398;28;20041;-60
2024/01/07 02:50:38;;;;;;;28.67;27.77;;;;;;;;;;4148321;28;20049;-59
2024/01/07 02:52:40;;;;;;;26.55;25.60;;;;;;;;;;4155668;28;20037;-59
2024/01/07 02:54:42;;;;;;;29.83;28.60;;;;;;;;;;4164319;28;20132;-59
2024/01/07 02:56:43;;;;;;;29.88;28.40;;;;;;;;;;4150539;28;20052;-59
2024/01/07 02:58:48;;;;;;;33.37;31.63;;;;;;;;;;4147993;28;20046;-59
2024/01/07 03:00:50;;;;;;;32.42;31.13;;;;;;;;;;4147789;28;20042;-59
2024/01/07 03:02:53;;;;;;;30.95;30.00;;;;;;;;;;4147851;28;20034;-59
2024/01/07 03:04:54;;;;;;;27.63;26.92;;;;;;;;;;4147964;28;20120;-59
2024/01/07 03:06:56;;;;;;;29.23;28.23;;;;;;;;;;4148132;28;20117;-59
2024/01/07 03:08:58;;;;;;;27.08;26.48;;;;;;;;;;4129807;28;20301;-59
2024/01/07 03:11:04;;;;;;;28.37;27.47;;;;;;;;;;4148074;28;20045;-59
2024/01/07 03:13:05;;;;;;;28.80;28.20;;;;;;;;;;4148137;28;20367;-59
2024/01/07 03:15:08;;;;;;;26.83;26.23;;;;;;;;;;4137838;28;20065;-59
2024/01/07 03:17:10;;;;;;;26.33;25.73;;;;;;;;;;4132021;28;20047;-59
2024/01/07 03:19:12;;;;;;;27.38;26.70;;;;;;;;;;4114225;28;20054;-59
2024/01/07 03:21:20;;;;;;;27.63;27.02;;;;;;;;;;4131713;28;20101;-59
2024/01/07 03:23:22;;;;;;;26.40;25.90;;;;;;;;;;4131819;28;20114;-59
2024/01/07 03:25:24;;;;;;;25.67;25.17;;;;;;;;;;4131809;28;20038;-58
2024/01/07 03:27:25;;;;;;;28.17;27.17;;;;;;;;;;4131826;28;20113;-59
2024/01/07 03:29:27;;;;;;;27.50;26.67;;;;;;;;;;4131462;28;20380;-58
2024/01/07 03:31:31;;;;;;;28.10;27.37;;;;;;;;;;4131412;28;20042;-59
2024/01/07 03:33:33;;;;;;;27.17;26.38;;;;;;;;;;4130911;28;20380;-59
2024/01/07 03:35:35;;;;;;;30.17;29.27;;;;;;;;;;4129832;28;20109;-59
2024/01/07 03:37:37;;;;;;;27.87;26.40;;;;;;;;;;4130040;28;20125;-59
2024/01/07 03:39:38;;;;;;;26.67;26.05;;;;;;;;;;4129920;28;20046;-59
2024/01/07 03:41:40;;;;;;;28.30;27.67;;;;;;;;;;4129536;28;20042;-59
2024/01/07 03:43:42;;;;;;;25.93;25.43;;;;;;;;;;4130136;28;20042;-59
2024/01/07 03:45:44;;;;;;;27.60;26.88;;;;;;;;;;4130012;28;20125;-59
2024/01/07 03:47:45;;;;;;;27.50;26.70;;;;;;;;;;4129995;28;20217;-59
2024/01/07 03:49:47;;;;;;;25.95;25.42;;;;;;;;;;4130942;28;20050;-59
2024/01/07 03:51:49;;;;;;;26.50;25.80;;;;;;;;;;4135620;28;20046;-59
2024/01/07 03:53:50;;;;;;;26.17;25.48;;;;;;;;;;4147713;28;20048;-59
2024/01/07 03:55:52;;;;;;;28.53;27.93;;;;;;;;;;4130315;28;20043;-59
2024/01/07 03:57:54;;;;;;;27.77;27.17;;;;;;;;;;4147474;28;20092;-59
2024/01/07 03:59:56;;;;;;;25.20;24.73;;;;;;;;;;4147219;28;20194;-59
2024/01/07 04:01:57;;;;;;;24.23;23.73;;;;;;;;;;4147327;28;20104;-59
2024/01/07 04:03:59;;;;;;;24.75;24.35;;;;;;;;;;4147100;28;20372;-59
2024/01/07 04:06:06;;;;;;;25.00;24.35;;;;;;;;;;4147992;28;20060;-59
2024/01/07 04:08:20;;;;;;;23.33;22.92;;;;;;;;;;4147263;28;20073;-59
2024/01/07 04:10:24;;;;;;;23.00;22.70;;;;;;;;;;4146177;28;20564;-59
2024/01/07 04:12:26;;;;;;;25.42;25.02;;;;;;;;;;4131443;28;20038;-59
2024/01/07 04:14:29;;;;;;;25.27;24.98;;;;;;;;;;4130311;28;20117;-59
2024/01/07 04:16:31;;;;;;;24.67;24.27;;;;;;;;;;4130542;28;20451;-59
2024/01/07 04:18:32;;;;;;;24.73;24.38;;;;;;;;;;4131492;28;20046;-58
2024/01/07 04:20:34;;;;;;;25.70;25.30;;;;;;;;;;4132899;28;20046;-59
2024/01/07 04:22:39;;;;;;;26.67;26.17;;;;;;;;;;4134193;28;20097;-58
2024/01/07 04:24:43;;;;;;;23.92;23.45;;;;;;;;;;4134202;28;20556;-58
2024/01/07 04:26:45;;;;;;;23.45;23.13;;;;;;;;;;4134454;28;20046;-59
2024/01/07 04:28:47;;;;;;;25.52;25.13;;;;;;;;;;4134147;28;20042;-59
2024/01/07 04:30:48;;;;;;;25.50;25.10;;;;;;;;;;4134138;28;20397;-58
2024/01/07 04:32:50;;;;;;;28.10;27.50;;;;;;;;;;4134214;28;20324;-59
2024/01/07 04:34:52;;;;;;;28.15;27.52;;;;;;;;;;4134188;28;20042;-58
2024/01/07 04:36:54;;;;;;;29.57;28.87;;;;;;;;;;4134045;28;20442;-58
2024/01/07 04:38:55;;;;;;;28.65;27.95;;;;;;;;;;4134123;28;20289;-59
2024/01/07 04:40:57;;;;;;;28.60;27.95;;;;;;;;;;4133474;28;20129;-59
2024/01/07 04:42:59;;;;;;;28.00;27.30;;;;;;;;;;4133858;28;20073;-58
2024/01/07 04:45:01;;;;;;;26.08;25.58;;;;;;;;;;4133826;28;20042;-59
2024/01/07 04:47:03;;;;;;;25.00;24.40;;;;;;;;;;4134062;28;20401;-58
2024/01/07 04:49:05;;;;;;;26.83;26.33;;;;;;;;;;4146515;28;20291;-58
2024/01/07 04:51:08;;;;;;;25.42;25.13;;;;;;;;;;4149976;28;20695;-58
2024/01/07 04:53:09;;;;;;;24.70;24.40;;;;;;;;;;4150069;28;20129;-59
2024/01/07 04:55:11;;;;;;;24.40;24.10;;;;;;;;;;4150137;28;20117;-59
2024/01/07 04:57:13;;;;;;;25.85;25.55;;;;;;;;;;4150114;28;20130;-59
2024/01/07 04:59:15;;;;;;;24.10;23.80;;;;;;;;;;4149744;28;20046;-59
2024/01/07 05:01:16;;;;;;;26.70;26.30;;;;;;;;;;4149264;28;20034;-59
2024/01/07 05:03:18;;;;;;;25.10;24.80;;;;;;;;;;4149422;28;20375;-58
2024/01/07 05:05:23;;;;;;;24.85;24.55;;;;;;;;;;4149987;28;20456;-59
2024/01/07 05:07:25;;;;;;;23.15;22.95;;;;;;;;;;4125027;28;20113;-59
2024/01/07 05:09:27;;;;;;;25.10;24.80;;;;;;;;;;4145279;28;20041;-59
2024/01/07 05:11:28;;;;;;;25.00;24.70;;;;;;;;;;4149582;28;20050;-59
2024/01/07 05:13:30;;;;;;;25.83;25.53;;;;;;;;;;4149640;28;20075;-59
2024/01/07 05:15:32;;;;;;;24.35;24.05;;;;;;;;;;4149621;28;20125;-59
2024/01/07 05:17:36;;;;;;;25.58;25.27;;;;;;;;;;4149551;28;20050;-59
2024/01/07 05:19:41;;;;;;;25.00;24.70;;;;;;;;;;4149757;28;20104;-58
2024/01/07 05:21:43;;;;;;;27.10;26.70;;;;;;;;;;4149344;28;20054;-59
2024/01/07 05:23:45;;;;;;;27.38;26.98;;;;;;;;;;4149602;28;20042;-58
2024/01/07 05:25:49;;;;;;;24.67;24.38;;;;;;;;;;4138665;28;20121;-59
2024/01/07 05:27:51;;;;;;;26.33;25.92;;;;;;;;;;4133451;28;20125;-59
2024/01/07 05:29:55;;;;;;;25.27;24.98;;;;;;;;;;4133210;28;20042;-59
2024/01/07 05:31:57;;;;;;;26.55;26.15;;;;;;;;;;4132551;28;20058;-59
2024/01/07 05:33:59;;;;;;;26.02;25.67;;;;;;;;;;4133276;28;20449;-59
2024/01/07 05:36:02;;;;;;;24.75;24.45;;;;;;;;;;4133007;28;20122;-60
2024/01/07 05:38:03;;;;;;;24.02;23.73;;;;;;;;;;4132925;28;20383;-58
2024/01/07 05:40:06;;;;;;;25.30;25.00;;;;;;;;;;4133152;28;20050;-59
2024/01/07 05:42:08;;;;;;;27.00;26.60;;;;;;;;;;4132917;28;20300;-59
2024/01/07 05:44:09;;;;;;;23.48;23.17;;;;;;;;;;4136174;28;20531;-59
2024/01/07 05:46:12;;;;;;;20.52;20.33;;;;;;;;;;4149329;28;20037;-59
2024/01/07 05:48:13;;;;;;;;;;;;;;;;;;4149735;28;20065;-59
2024/01/07 05:50:18;;;;;;;25.33;24.90;;;;;;;;;;4149237;28;20024;-58
2024/01/07 05:52:20;;;;;;;26.38;26.02;;;;;;;;;;4148853;28;20412;-59
2024/01/07 05:54:22;;;;;;;26.42;26.10;;;;;;;;;;4149113;28;20145;-59
2024/01/07 05:56:24;;;;;;;25.20;24.90;;;;;;;;;;4149194;28;20042;-58
2024/01/07 05:58:25;;;;;;;26.57;26.17;;;;;;;;;;4149199;28;20042;-58
2024/01/07 06:00:27;;;;;;;26.43;26.03;;;;;;;;;;4148858;28;20056;-58
2024/01/07 06:02:29;;;;;;;24.30;24.00;;;;;;;;;;4148958;28;20379;-59
2024/01/07 06:04:30;;;;;;;23.33;23.10;;;;;;;;;;4134434;28;20058;-59
2024/01/07 06:06:33;;;;;;;25.42;25.13;;;;;;;;;;4132761;28;20069;-59
2024/01/07 06:08:36;;;;;;;22.15;21.95;;;;;;;;;;4137737;28;20080;-58
2024/01/07 06:10:37;;;;;;;24.10;23.80;;;;;;;;;;4148641;28;20046;-58
2024/01/07 06:12:39;;;;;;;24.85;24.55;;;;;;;;;;4148757;28;20410;-59
2024/01/07 06:14:40;;;;;;;27.17;26.77;;;;;;;;;;4131181;28;20054;-58
2024/01/07 06:16:42;;;;;;;26.57;26.17;;;;;;;;;;4148813;28;20042;-59
2024/01/07 06:18:44;;;;;;;28.45;27.75;;;;;;;;;;4148563;28;20042;-59
2024/01/07 06:20:46;;;;;;;26.83;26.33;;;;;;;;;;4148700;28;20432;-58
2024/01/07 06:22:48;;;;;;;26.50;26.10;;;;;;;;;;4130954;28;20042;-59
2024/01/07 06:24:49;;;;;;;27.77;27.10;;;;;;;;;;4130976;28;20053;-58
2024/01/07 06:26:51;;;;;;;26.77;26.17;;;;;;;;;;4148655;28;20112;-59
2024/01/07 06:28:53;;;;;;;25.13;24.83;;;;;;;;;;4148664;28;20065;-58
2024/01/07 06:30:54;;;;;;;27.17;26.77;;;;;;;;;;4148589;28;20038;-59
2024/01/07 06:33:00;;;;;;;27.58;27.17;;;;;;;;;;4139561;28;20096;-58
2024/01/07 06:35:03;;;;;;;28.75;28.20;;;;;;;;;;4132050;28;20046;-59
2024/01/07 06:37:05;;;;;;;25.40;25.10;;;;;;;;;;4132189;28;20038;-59
2024/01/07 06:39:07;;;;;;;;;;;;;;;;;;4132788;28;20494;-59
2024/01/07 06:41:09;;;;;;;24.27;23.98;;;;;;;;;;4139559;28;19925;-59
2024/01/07 06:43:11;;;;;;;24.67;24.38;;;;;;;;;;4135381;28;20403;-58
2024/01/07 06:45:16;;;;;;;26.02;25.73;;;;;;;;;;4130978;28;20041;-58
2024/01/07 06:47:17;;;;;;;;;;;;;;;;;;4132768;28;20034;-60
2024/01/07 06:49:19;;;;;;;28.50;28.00;;;;;;;;;;4131849;28;19921;-60
2024/01/07 06:51:24;;;;;;;28.30;27.90;;;;;;;;;;4132052;28;20066;-60
2024/01/07 06:53:25;;;;;;;24.17;23.88;;;;;;;;;;4145790;28;20117;-61
2024/01/07 06:55:29;;;;;;;24.60;24.30;;;;;;;;;;4148403;28;20046;-60
2024/01/07 06:57:31;;;;;;;25.80;25.50;;;;;;;;;;4148319;28;20461;-61
2024/01/07 06:59:33;;;;;;;30.35;29.52;;;;;;;;;;4143937;28;20072;-60
2024/01/07 07:01:35;;;;;;;32.00;30.80;;;;;;;;;;4131569;28;20073;-60
2024/01/07 07:03:37;;;;;;;31.40;30.15;;;;;;;;;;4131412;28;20291;-60
2024/01/07 07:05:38;;;;;;;34.35;33.05;;;;;;;;;;4128876;28;20038;-60
2024/01/07 07:07:40;;;;;;;29.00;28.20;;;;;;;;;;4130614;28;20101;-60
2024/01/07 07:09:42;;;;;;;26.03;25.63;;;;;;;;;;4137438;28;20038;-60
2024/01/07 07:11:43;;;;;;;26.33;26.00;;;;;;;;;;4130996;28;20121;-60
2024/01/07 07:13:45;;;;;;;25.27;24.97;;;;;;;;;;4127549;28;20050;-60
2024/01/07 07:15:47;;;;;;;26.70;26.30;;;;;;;;;;4130477;28;20042;-60
2024/01/07 07:17:48;;;;;;;26.48;26.08;;;;;;;;;;4129380;28;20140;-60
2024/01/07 07:19:50;;;;;;;25.97;25.57;;;;;;;;;;4127492;28;20050;-59
2024/01/07 07:21:54;;;;;;;28.08;27.67;;;;;;;;;;4126790;28;20297;-60
2024/01/07 07:23:56;;;;;;;24.00;23.70;;;;;;;;;;4128163;28;20038;-60
2024/01/07 07:25:58;;;;;;;25.67;25.38;;;;;;;;;;4131677;28;20038;-60
2024/01/07 07:27:59;;;;;;;23.95;23.65;;;;;;;;;;4129859;28;20158;-59
2024/01/07 07:30:01;;;;;;;28.42;28.02;;;;;;;;;;4130474;28;20430;-60
2024/01/07 07:32:03;;;;;;;27.38;26.98;;;;;;;;;;4127646;28;20042;-59
2024/01/07 07:34:05;;;;;;;25.92;25.52;;;;;;;;;;4128546;28;20557;-60
2024/01/07 07:36:07;;;;;;;24.83;24.48;;;;;;;;;;4126780;28;20104;-58
2024/01/07 07:38:09;;;;;;;29.88;29.17;;;;;;;;;;4131451;28;20042;-59
2024/01/07 07:40:12;;;;;;;23.87;23.37;;;;;;;;;;4131548;28;20089;-60
2024/01/07 07:42:15;;;;;;;23.23;22.92;;;;;;;;;;4129117;28;20138;-59
2024/01/07 07:44:17;;;;;;;26.45;26.05;;;;;;;;;;4125624;28;20588;-60
2024/01/07 07:46:19;;;;;;;26.50;26.00;;;;;;;;;;4130635;28;20125;-59
2024/01/07 07:48:21;;;;;;;25.77;25.38;;;;;;;;;;4129275;28;20038;-59
2024/01/07 07:50:22;;;;;;;25.90;25.50;;;;;;;;;;4130820;28;20104;-59
2024/01/07 07:52:25;;;;;;;25.43;25.13;;;;;;;;;;4126111;28;20049;-59
2024/01/07 07:54:27;;;;;;;25.85;25.50;;;;;;;;;;4122925;28;20121;-60
2024/01/07 07:56:31;;;;;;;25.45;25.05;;;;;;;;;;4131674;28;20046;-59
2024/01/07 07:58:33;;;;;;;24.42;24.02;;;;;;;;;;4133662;28;20047;-59
2024/01/07 08:00:35;;;;;;;25.20;24.87;;;;;;;;;;4131554;28;20043;-59
2024/01/07 08:02:36;;;;;;;25.52;25.13;;;;;;;;;;4124911;28;20074;-57
2024/01/07 08:04:41;;;;;;;26.87;26.47;;;;;;;;;;4133694;28;20065;-59
2024/01/07 08:06:45;;;;;;;25.35;24.95;;;;;;;;;;4134581;28;20145;-58
2024/01/07 08:08:47;;;;;;;22.83;22.58;;;;;;;;;;4140423;28;20124;-59
2024/01/07 08:10:49;;;;;;;25.03;24.73;;;;;;;;;;4132361;28;20042;-58
2024/01/07 08:12:50;;;;;;;26.80;26.40;;;;;;;;;;4127259;28;20097;-58
2024/01/07 08:14:52;;;;;;;28.85;28.35;;;;;;;;;;4123540;28;20058;-58
2024/01/07 08:16:54;;;;;;;25.40;25.10;;;;;;;;;;4126365;28;20472;-58
2024/01/07 08:18:56;;;;;;;26.27;25.95;;;;;;;;;;4128165;28;20046;-58
2024/01/07 08:20:58;;;;;;;26.58;26.17;;;;;;;;;;4126258;28;20097;-64
2024/01/07 08:23:05;;;;;;;26.52;26.02;;;;;;;;;;4124447;28;20043;-63
2024/01/07 08:25:07;;;;;;;26.75;26.35;;;;;;;;;;4133820;28;20049;-64
2024/01/07 08:27:09;;;;;;;27.88;27.48;;;;;;;;;;4133870;28;20066;-64
2024/01/07 08:29:11;;;;;;;29.33;28.73;;;;;;;;;;4134072;28;20057;-64
2024/01/07 08:31:13;;;;;;;27.88;26.95;;;;;;;;;;4133993;28;20286;-63
2024/01/07 08:33:15;;;;;;;25.88;25.30;;;;;;;;;;4134120;28;20089;-63
2024/01/07 08:35:16;;;;;;;27.48;27.05;;;;;;;;;;4116670;28;20039;-64
2024/01/07 08:37:21;;;;;;;26.67;26.23;;;;;;;;;;4133683;28;20422;-63
2024/01/07 08:39:22;;;;;;;24.53;24.23;;;;;;;;;;4134137;28;20461;-64
2024/01/07 08:41:26;;;;;;;25.58;25.27;;;;;;;;;;4134126;28;20100;-64
2024/01/07 08:43:30;;;;;;;25.52;25.23;;;;;;;;;;4134053;28;20054;-64
2024/01/07 08:45:34;;;;;;;24.92;24.63;;;;;;;;;;4127577;28;20038;-64
2024/01/07 08:47:36;;;;;;;24.77;24.38;;;;;;;;;;4133709;28;20121;-63
2024/01/07 08:49:44;;;;;;;24.90;24.60;;;;;;;;;;4132617;28;20125;-63
2024/01/07 08:51:46;;;;;;;27.63;27.23;;;;;;;;;;4133978;28;20034;-63
2024/01/07 08:53:48;;;;;;;25.40;25.10;;;;;;;;;;4150056;28;20064;-64
2024/01/07 08:55:50;;;;;;;24.98;24.67;;;;;;;;;;4150141;28;20116;-63
2024/01/07 08:57:52;;;;;;;26.50;26.10;;;;;;;;;;4149866;28;20056;-63
2024/01/07 08:59:54;;;;;;;25.20;24.90;;;;;;;;;;4149912;28;20095;-63
2024/01/07 09:01:55;;;;;;;27.23;26.83;;;;;;;;;;4149539;28;20441;-64
2024/01/07 09:03:57;;;;;;;26.02;25.63;;;;;;;;;;4149441;28;20046;-64
2024/01/07 09:05:59;;;;;;;29.60;28.98;;;;;;;;;;4149693;28;20121;-63
2024/01/07 09:08:01;;;;;;;28.67;27.88;;;;;;;;;;4129980;28;20458;-66
2024/01/07 09:10:10;;;;;;;26.80;26.35;;;;;;;;;;4124386;28;20042;-66
2024/01/07 09:12:12;;;;;;;27.60;27.00;;;;;;;;;;4123751;28;20062;-66
2024/01/07 09:14:14;;;;;;;29.40;28.63;;;;;;;;;;4132687;28;20088;-66
2024/01/07 09:16:16;;;;;;;28.27;27.67;;;;;;;;;;4132853;28;20285;-66
2024/01/07 09:18:18;;;;;;;28.15;27.55;;;;;;;;;;4132970;28;20277;-66
2024/01/07 09:20:20;;;;;;;28.55;27.63;;;;;;;;;;4132506;28;20574;-66
2024/01/07 09:22:22;;;;;;;27.77;27.02;;;;;;;;;;4133034;28;20617;-66
2024/01/07 09:24:23;;;;;;;26.23;25.80;;;;;;;;;;4133521;28;20096;-65
2024/01/07 09:26:25;;;;;;;27.58;26.98;;;;;;;;;;4133160;28;20052;-65
2024/01/07 09:28:27;;;;;;;27.27;26.77;;;;;;;;;;4132812;28;20039;-66
2024/01/07 09:30:28;;;;;;;25.70;25.30;;;;;;;;;;4133094;28;20046;-72
2024/01/07 09:32:30;;;;;;;27.20;26.60;;;;;;;;;;4133441;28;20373;-71
2024/01/07 09:34:34;;;;;;;26.20;25.73;;;;;;;;;;4117013;28;20047;-71
2024/01/07 09:36:36;;;;;;;26.38;25.98;;;;;;;;;;4117227;28;20450;-72
2024/01/07 09:38:39;;;;;;;26.75;26.25;;;;;;;;;;4129602;28;20045;-71
2024/01/07 09:40:41;;;;;;;27.05;26.52;;;;;;;;;;4133186;28;20097;-71
2024/01/07 09:42:43;;;;;;;26.70;26.00;;;;;;;;;;4126048;28;20043;-72
2024/01/07 09:44:45;;;;;;;27.67;27.25;;;;;;;;;;4115783;28;20078;-72
2024/01/07 09:46:51;;;;;;;25.20;24.80;;;;;;;;;;4132874;28;20038;-71
2024/01/07 09:48:56;;;;;;;27.55;27.05;;;;;;;;;;4133043;28;20129;-72
2024/01/07 09:50:58;;;;;;;29.65;29.05;;;;;;;;;;4133184;28;20042;-72
2024/01/07 09:53:02;;;;;;;27.80;27.30;;;;;;;;;;4143295;28;20045;-71
2024/01/07 09:55:05;;;;;;;29.08;28.48;;;;;;;;;;4149193;28;20046;-71
2024/01/07 09:57:07;;;;;;;25.80;25.45;;;;;;;;;;4149213;28;20124;-71
2024/01/07 09:59:09;;;;;;;;;;;;;;;;;;4149610;28;20073;-71
2024/01/07 10:01:11;;;;;;;27.23;26.83;;;;;;;;;;4148732;28;19921;-72
2024/01/07 10:03:13;;;;;;;24.77;24.38;;;;;;;;;;4134084;28;20062;-72
2024/01/07 10:05:16;;;;;;;25.27;24.70;;;;;;;;;;4125974;28;20077;-71
2024/01/07 10:07:19;;;;;;;26.00;25.70;;;;;;;;;;4132608;28;20105;-71
2024/01/07 10:09:32;;;;;;;27.17;26.77;;;;;;;;;;4143034;28;20076;-71
2024/01/07 10:11:34;;;;;;;26.63;26.23;;;;;;;;;;4124981;28;20414;-71
2024/01/07 10:13:36;;;;;;;25.27;24.98;;;;;;;;;;4124571;28;20035;-70
2024/01/07 10:15:38;;;;;;;27.43;27.03;;;;;;;;;;4124898;28;20521;-71
2024/01/07 10:17:43;;;;;;;26.45;26.05;;;;;;;;;;4124694;28;20049;-65
2024/01/07 10:19:46;;;;;;;27.23;26.83;;;;;;;;;;4122188;28;20043;-65
2024/01/07 10:22:08;;;;;;;27.88;27.42;;;;;;;;;;4128821;28;20042;-66
2024/01/07 10:24:10;;;;;;;25.88;25.48;;;;;;;;;;4127332;28;20034;-66
2024/01/07 10:26:12;;;;;;;26.10;25.75;;;;;;;;;;4130576;28;20042;-66
2024/01/07 10:28:28;;;;;;;25.88;25.55;;;;;;;;;;4132078;28;20068;-71
2024/01/07 10:30:30;;;;;;;25.88;25.58;;;;;;;;;;4141763;28;20044;-71
2024/01/07 10:32:31;;;;;;;24.77;24.38;;;;;;;;;;4135204;28;20038;-71
2024/01/07 10:34:34;;;;;;;28.50;27.77;;;;;;;;;;4114985;28;20062;-71
2024/01/07 10:36:37;;;;;;;26.38;25.80;;;;;;;;;;4132171;28;20441;-72
2024/01/07 10:38:41;;;;;;;27.60;27.10;;;;;;;;;;4131636;28;20034;-66
2024/01/07 10:40:46;;;;;;;24.92;24.63;;;;;;;;;;4131667;28;20125;-66
2024/01/07 10:42:48;;;;;;;26.17;25.77;;;;;;;;;;4132174;28;20039;-65
2024/01/07 10:44:50;;;;;;;25.95;25.58;;;;;;;;;;4132010;28;20042;-66
2024/01/07 10:46:53;;;;;;;27.90;27.50;;;;;;;;;;4131349;28;20046;-66
2024/01/07 10:48:58;;;;;;;24.65;24.35;;;;;;;;;;4132189;28;20100;-68
2024/01/07 10:51:00;;;;;;;25.08;24.77;;;;;;;;;;4131453;28;20117;-68
2024/01/07 10:53:07;;;;;;;25.13;24.83;;;;;;;;;;4142651;28;20045;-67
2024/01/07 10:55:14;;;;;;;28.13;27.73;;;;;;;;;;4148160;28;20041;-66
2024/01/07 10:57:41;;;;;;;28.40;27.90;;;;;;;;;;4148377;28;20100;-68
2024/01/07 10:59:44;;;;;;;24.90;24.60;;;;;;;;;;4120018;28;20092;-67
2024/01/07 11:01:46;;;;;;;28.20;27.70;;;;;;;;;;4130150;28;20101;-67
2024/01/07 11:04:06;;;;;;;31.88;30.90;;;;;;;;;;4131497;28;20058;-66
2024/01/07 11:06:14;;;;;;;29.98;29.27;;;;;;;;;;4131571;28;20068;-66
2024/01/07 11:08:39;;;;;;;28.27;27.77;;;;;;;;;;4132417;28;20031;-68
2024/01/07 11:10:53;;;;;;;25.08;24.77;;;;;;;;;;4130910;28;20476;-66
2024/01/07 11:12:55;;;;;;;30.00;29.45;;;;;;;;;;4131974;28;20070;-68
2024/01/07 11:14:58;;;;;;;24.48;24.15;;;;;;;;;;4126504;28;20065;-66
2024/01/07 11:17:00;;;;;;;25.95;25.55;;;;;;;;;;4115574;28;20047;-67
2024/01/07 11:19:02;;;;;;;26.87;26.37;;;;;;;;;;4115464;28;20101;-68
2024/01/07 11:21:04;;;;;;;26.67;25.98;;;;;;;;;;4130097;28;20046;-66
2024/01/07 11:23:24;;;;;;;25.60;25.20;;;;;;;;;;4131273;28;20034;-67
2024/01/07 11:25:32;;;;;;;26.23;25.83;;;;;;;;;;4134936;28;20374;-67
2024/01/07 11:27:35;;;;;;;28.00;27.27;;;;;;;;;;4141593;28;20065;-67
2024/01/07 11:29:37;;;;;;;26.48;26.08;;;;;;;;;;4130024;28;20091;-66
2024/01/07 11:31:39;;;;;;;28.70;28.00;;;;;;;;;;4131029;28;20552;-66
2024/01/07 11:33:41;;;;;;;29.83;28.77;;;;;;;;;;4130719;28;20042;-66
2024/01/07 11:35:52;;;;;;;29.88;28.88;;;;;;;;;;4130572;28;20058;-66
2024/01/07 11:37:54;;;;;;;27.77;27.38;;;;;;;;;;4129510;28;20448;-66
2024/01/07 11:39:57;;;;;;;26.08;25.60;;;;;;;;;;4122814;28;20402;-65
2024/01/07 11:42:00;;;;;;;25.70;25.13;;;;;;;;;;4114167;28;20046;-67
2024/01/07 11:44:02;;;;;;;28.17;27.60;;;;;;;;;;4147216;28;20045;-67
2024/01/07 11:46:07;;;;;;;27.52;26.92;;;;;;;;;;4140597;28;20573;-65
2024/01/07 11:48:09;;;;;;;29.60;28.90;;;;;;;;;;4131704;28;20038;-71
2024/01/07 11:50:11;;;;;;;28.70;28.05;;;;;;;;;;4130207;28;20038;-70
2024/01/07 11:52:13;;;;;;;25.17;24.77;;;;;;;;;;4132638;28;20045;-71
2024/01/07 11:54:15;;;;;;;29.33;28.45;;;;;;;;;;4129989;28;20343;-71
2024/01/07 11:56:18;;;;;;;26.08;25.67;;;;;;;;;;4127831;28;20034;-71
2024/01/07 11:58:19;;;;;;;30.42;29.73;;;;;;;;;;4126281;28;20070;-71